createdAt,value
2023-02-22T00:00:19.317Z,22.02
2023-02-22T00:02:48.422Z,32.47
2023-02-22T00:05:17.044Z,25.20
2023-02-22T00:07:44.691Z,22.10
2023-02-22T00:10:14.548Z,20.85
2023-02-22T00:12:42.495Z,19.70
2023-02-22T00:15:09.909Z,19.27
2023-02-22T00:17:37.006Z,17.88
2023-02-22T00:20:06.764Z,20.75
2023-02-22T00:22:33.922Z,18.02
2023-02-22T00:25:00.955Z,18.88
2023-02-22T00:27:28.095Z,23.40
2023-02-22T00:29:56.483Z,20.40
2023-02-22T00:32:24.420Z,18.35
2023-02-22T00:34:54.785Z,19.65
2023-02-22T00:37:21.943Z,20.95
2023-02-22T00:39:49.685Z,19.45
2023-02-22T00:42:17.218Z,19.95
2023-02-22T00:44:44.246Z,20.65
2023-02-22T00:47:11.424Z,20.77
2023-02-22T00:49:38.962Z,22.83
2023-02-22T00:52:06.223Z,22.08
2023-02-22T00:54:33.292Z,22.98
2023-02-22T00:57:00.458Z,21.40
2023-02-22T00:59:27.512Z,21.63
2023-02-22T01:01:54.614Z,21.02
2023-02-22T01:04:21.777Z,19.90
2023-02-22T01:06:49.032Z,21.02
2023-02-22T01:09:16.051Z,22.55
2023-02-22T01:11:43.073Z,21.20
2023-02-22T01:14:11.566Z,20.75
2023-02-22T01:16:38.673Z,19.25
2023-02-22T01:19:06.295Z,19.98
2023-02-22T01:21:33.360Z,20.27
2023-02-22T01:24:00.401Z,19.95
2023-02-22T01:26:27.428Z,19.35
2023-02-22T01:28:54.462Z,20.85
2023-02-22T01:31:24.015Z,20.52
2023-02-22T01:33:51.378Z,21.05
2023-02-22T01:36:18.972Z,19.60
2023-02-22T01:38:46.157Z,19.63
2023-02-22T01:41:13.328Z,24.63
2023-02-22T01:43:40.400Z,26.83
2023-02-22T01:46:08.384Z,27.15
2023-02-22T01:48:42.498Z,21.80
2023-02-22T01:51:19.809Z,22.05
2023-02-22T01:54:07.273Z,21.20
2023-02-22T01:56:35.078Z,20.80
2023-02-22T01:59:02.957Z,19.88
2023-02-22T02:01:30.068Z,17.65
2023-02-22T02:04:00.768Z,17.73
2023-02-22T02:06:28.338Z,17.10
2023-02-22T02:09:00.700Z,21.77
2023-02-22T02:11:27.724Z,24.60
2023-02-22T02:13:55.293Z,24.77
2023-02-22T02:16:23.158Z,21.45
2023-02-22T02:18:50.321Z,22.30
2023-02-22T02:21:20.129Z,21.45
2023-02-22T02:23:59.441Z,22.15
2023-02-22T02:26:27.464Z,23.15
2023-02-22T02:28:57.288Z,21.75
2023-02-22T02:31:31.706Z,23.50
2023-02-22T02:34:20.354Z,22.48
2023-02-22T02:36:54.466Z,19.85
2023-02-22T02:39:25.391Z,21.00
2023-02-22T02:41:52.819Z,20.10
2023-02-22T02:44:40.165Z,21.42
2023-02-22T02:47:11.106Z,21.08
2023-02-22T02:49:40.688Z,22.38
2023-02-22T02:52:07.739Z,22.00
2023-02-22T02:54:35.458Z,21.20
2023-02-22T02:57:02.820Z,20.70
2023-02-22T02:59:30.781Z,21.00
2023-02-22T03:02:13.063Z,20.42
2023-02-22T03:04:54.190Z,20.45
2023-02-22T03:07:24.583Z,20.23
2023-02-22T03:09:53.040Z,22.42
2023-02-22T03:12:27.693Z,19.95
2023-02-22T03:14:55.937Z,19.73
2023-02-22T03:17:31.915Z,19.48
2023-02-22T03:19:59.666Z,19.05
2023-02-22T03:22:48.034Z,20.40
2023-02-22T03:25:15.900Z,20.38
2023-02-22T03:27:44.677Z,20.17
2023-02-22T03:30:12.963Z,19.30
2023-02-22T03:32:40.434Z,19.80
2023-02-22T03:35:11.755Z,19.63
2023-02-22T03:37:40.099Z,19.98
2023-02-22T03:40:14.029Z,17.73
2023-02-22T03:42:41.782Z,17.80
2023-02-22T03:45:10.048Z,16.13
2023-02-22T03:47:41.696Z,17.25
2023-02-22T03:50:11.873Z,17.13
2023-02-22T03:52:38.950Z,16.60
2023-02-22T03:55:11.080Z,17.17
2023-02-22T03:57:39.458Z,17.85
2023-02-22T04:00:07.646Z,16.90
2023-02-22T04:02:34.799Z,16.40
2023-02-22T04:05:01.986Z,16.08
2023-02-22T04:07:29.204Z,16.17
2023-02-22T04:09:56.318Z,15.38
2023-02-22T04:12:23.458Z,15.82
2023-02-22T04:14:50.590Z,15.70
2023-02-22T04:17:17.662Z,15.80
2023-02-22T04:19:45.728Z,15.20
2023-02-22T04:22:12.702Z,16.23
2023-02-22T04:24:39.689Z,16.65
2023-02-22T04:27:06.718Z,15.98
2023-02-22T04:29:33.782Z,16.30
2023-02-22T04:32:00.838Z,16.50
2023-02-22T04:34:27.829Z,17.38
2023-02-22T04:36:54.809Z,17.63
2023-02-22T04:39:21.940Z,16.80
2023-02-22T04:41:48.922Z,17.30
2023-02-22T04:44:15.944Z,17.25
2023-02-22T04:46:43.108Z,16.00
2023-02-22T04:49:10.127Z,16.38
2023-02-22T04:51:37.186Z,16.80
2023-02-22T04:54:04.290Z,15.70
2023-02-22T04:56:31.320Z,16.40
2023-02-22T04:58:58.503Z,17.48
2023-02-22T05:01:25.600Z,17.52
2023-02-22T05:03:52.605Z,17.27
2023-02-22T05:06:19.662Z,17.50
2023-02-22T05:08:46.802Z,17.55
2023-02-22T05:11:14.726Z,18.30
2023-02-22T05:13:42.320Z,16.98
2023-02-22T05:16:09.353Z,16.73
2023-02-22T05:18:36.369Z,17.83
2023-02-22T05:21:03.345Z,17.90
2023-02-22T05:23:30.363Z,17.17
2023-02-22T05:25:57.839Z,18.38
2023-02-22T05:28:24.878Z,17.92
2023-02-22T05:30:51.907Z,17.23
2023-02-22T05:33:18.953Z,19.23
2023-02-22T05:35:46.234Z,18.67
2023-02-22T05:38:14.885Z,18.42
2023-02-22T05:40:42.149Z,18.73
2023-02-22T05:43:09.427Z,18.42
2023-02-22T05:45:36.439Z,18.98
2023-02-22T05:48:03.556Z,17.83
2023-02-22T05:50:30.960Z,18.35
2023-02-22T05:52:58.066Z,18.05
2023-02-22T05:55:25.227Z,17.02
2023-02-22T05:57:52.593Z,17.77
2023-02-22T06:00:29.948Z,17.00
2023-02-22T06:03:06.903Z,17.50
2023-02-22T06:05:33.980Z,17.27
2023-02-22T06:08:00.992Z,17.08
2023-02-22T06:10:28.018Z,17.23
2023-02-22T06:12:55.112Z,16.05
2023-02-22T06:15:22.540Z,17.40
2023-02-22T06:17:49.642Z,18.50
2023-02-22T06:20:17.590Z,18.42
2023-02-22T06:22:45.588Z,19.52
2023-02-22T06:25:13.731Z,20.05
2023-02-22T06:27:40.821Z,22.05
2023-02-22T06:30:08.276Z,22.45
2023-02-22T06:32:35.291Z,22.67
2023-02-22T06:35:02.274Z,23.90
2023-02-22T06:37:29.324Z,21.67
2023-02-22T06:39:56.370Z,21.88
2023-02-22T06:42:24.007Z,22.63
2023-02-22T06:44:51.812Z,22.13
2023-02-22T06:47:18.899Z,21.95
2023-02-22T06:49:45.911Z,25.15
2023-02-22T06:52:12.948Z,27.40
2023-02-22T06:54:39.934Z,26.80
2023-02-22T06:57:08.362Z,27.05
2023-02-22T06:59:35.398Z,28.27
2023-02-22T07:02:03.860Z,26.70
2023-02-22T07:04:31.111Z,26.95
2023-02-22T07:06:58.183Z,25.20
2023-02-22T07:09:25.304Z,24.73
2023-02-22T07:11:53.630Z,24.83
2023-02-22T07:14:20.686Z,23.63
2023-02-22T07:16:47.758Z,22.75
2023-02-22T07:19:14.786Z,23.38
2023-02-22T07:21:41.796Z,23.15
2023-02-22T07:24:08.984Z,25.77
2023-02-22T07:26:40.509Z,21.38
2023-02-22T07:29:07.611Z,23.80
2023-02-22T07:31:38.124Z,24.10
2023-02-22T07:36:32.188Z,20.17
2023-02-22T07:38:59.256Z,19.30
2023-02-22T07:41:26.338Z,18.85
2023-02-22T07:43:53.740Z,16.70
2023-02-22T07:46:20.828Z,16.33
2023-02-22T07:48:47.878Z,15.02
2023-02-22T07:51:20.582Z,15.13
2023-02-22T07:53:47.658Z,14.45
2023-02-22T07:56:14.680Z,14.05
2023-02-22T07:58:41.683Z,12.73
2023-02-22T08:01:08.850Z,12.70
2023-02-22T08:03:36.749Z,13.02
2023-02-22T08:06:04.303Z,12.65
2023-02-22T08:08:31.411Z,12.48
2023-02-22T08:10:58.450Z,13.00
2023-02-22T08:13:25.449Z,12.75
2023-02-22T08:15:53.793Z,13.40
2023-02-22T08:18:21.079Z,14.65
2023-02-22T08:20:48.572Z,13.15
2023-02-22T08:23:15.726Z,12.18
2023-02-22T08:25:42.726Z,12.32
2023-02-22T08:28:10.553Z,10.73
2023-02-22T08:30:40.197Z,11.68
2023-02-22T08:33:07.645Z,10.65
2023-02-22T08:35:34.826Z,10.98
2023-02-22T08:38:02.776Z,10.45
2023-02-22T08:40:31.065Z,10.02
2023-02-22T08:42:58.239Z,9.73
2023-02-22T08:45:25.243Z,9.20
2023-02-22T08:47:52.520Z,9.50
2023-02-22T08:50:22.152Z,9.68
2023-02-22T08:52:51.210Z,9.20
2023-02-22T08:55:20.285Z,9.32
2023-02-22T08:57:47.281Z,8.93
2023-02-22T09:00:15.753Z,8.88
2023-02-22T09:02:42.732Z,8.77
2023-02-22T09:05:09.782Z,9.20
2023-02-22T09:07:36.754Z,8.68
2023-02-22T09:10:03.737Z,9.27
2023-02-22T09:12:31.329Z,8.77
2023-02-22T09:14:59.361Z,8.68
2023-02-22T09:17:26.331Z,8.73
2023-02-22T09:19:53.394Z,9.50
2023-02-22T09:22:20.408Z,8.60
2023-02-22T09:24:47.464Z,9.18
2023-02-22T09:27:14.891Z,8.95
2023-02-22T09:29:42.134Z,8.43
2023-02-22T09:32:09.283Z,8.40
2023-02-22T09:34:36.415Z,8.38
2023-02-22T09:37:04.989Z,8.60
2023-02-22T09:39:37.392Z,8.80
2023-02-22T09:42:09.529Z,7.93
2023-02-22T09:44:56.774Z,8.80
2023-02-22T09:47:39.323Z,9.20
2023-02-22T09:50:15.509Z,8.25
2023-02-22T09:52:53.935Z,8.93
2023-02-22T09:55:36.379Z,8.32
2023-02-22T09:58:04.315Z,8.57
2023-02-22T10:00:35.180Z,8.75
2023-02-22T10:03:21.641Z,8.48
2023-02-22T10:06:05.489Z,8.40
2023-02-22T10:08:33.371Z,8.25
2023-02-22T10:11:04.075Z,8.85
2023-02-22T10:13:34.701Z,8.18
2023-02-22T10:16:05.149Z,9.05
2023-02-22T10:18:32.714Z,8.23
2023-02-22T10:21:18.222Z,8.32
2023-02-22T10:23:51.699Z,8.80
2023-02-22T10:26:23.499Z,8.73
2023-02-22T10:28:50.587Z,9.38
2023-02-22T10:31:22.758Z,8.23
2023-02-22T10:33:51.800Z,8.40
2023-02-22T10:36:19.976Z,7.55
2023-02-22T10:38:59.079Z,7.80
2023-02-22T10:41:29.269Z,7.03
2023-02-22T10:43:56.317Z,7.53
2023-02-22T10:46:23.419Z,6.32
2023-02-22T10:48:51.630Z,7.13
2023-02-22T10:51:18.678Z,7.03
2023-02-22T10:53:45.710Z,8.38
2023-02-22T10:56:23.138Z,7.57
2023-02-22T10:58:52.221Z,7.60
2023-02-22T11:01:26.353Z,7.88
2023-02-22T11:04:00.449Z,8.20
2023-02-22T11:06:27.508Z,7.93
2023-02-22T11:09:05.124Z,7.93
2023-02-22T11:11:32.148Z,8.05
2023-02-22T11:14:00.608Z,8.45
2023-02-22T11:16:29.093Z,8.27
2023-02-22T11:19:03.754Z,8.65
2023-02-22T11:21:31.167Z,8.65
2023-02-22T11:24:01.941Z,8.88
2023-02-22T11:26:28.965Z,8.88
2023-02-22T11:28:56.156Z,9.10
2023-02-22T11:31:30.142Z,8.80
2023-02-22T11:33:58.767Z,8.73
2023-02-22T11:36:32.035Z,8.95
2023-02-22T11:39:00.827Z,9.05
2023-02-22T11:41:28.865Z,8.10
2023-02-22T11:43:55.947Z,8.40
2023-02-22T11:46:35.252Z,8.70
2023-02-22T11:49:20.389Z,8.35
2023-02-22T11:51:50.497Z,9.10
2023-02-22T11:54:31.270Z,8.00
2023-02-22T11:57:00.724Z,7.90
2023-02-22T11:59:32.306Z,8.45
2023-02-22T12:02:02.020Z,8.40
2023-02-22T12:04:36.471Z,9.02
2023-02-22T12:07:08.251Z,8.65
2023-02-22T12:09:44.407Z,8.80
2023-02-22T12:12:15.210Z,9.30
2023-02-22T12:14:55.485Z,8.60
2023-02-22T12:17:28.693Z,8.25
2023-02-22T12:19:57.132Z,8.68
2023-02-22T12:22:28.520Z,8.88
2023-02-22T12:25:09.823Z,9.05
2023-02-22T12:27:38.926Z,8.50
2023-02-22T12:30:07.644Z,8.90
2023-02-22T12:32:34.755Z,9.38
2023-02-22T12:35:08.527Z,10.60
2023-02-22T12:37:39.104Z,10.18
2023-02-22T12:42:54.809Z,10.45
2023-02-22T12:45:32.813Z,11.55
2023-02-22T12:48:19.946Z,12.32
2023-02-22T12:50:48.726Z,12.23
2023-02-22T12:53:20.375Z,11.77
2023-02-22T12:55:51.671Z,12.82
2023-02-22T12:58:31.171Z,12.20
2023-02-22T13:00:59.866Z,11.88
2023-02-22T13:03:26.909Z,12.75
2023-02-22T13:06:01.563Z,12.77
2023-02-22T13:08:30.893Z,12.27
2023-02-22T13:10:57.986Z,12.82
2023-02-22T13:13:40.174Z,11.57
2023-02-22T13:16:07.824Z,12.25
2023-02-22T13:18:34.913Z,13.15
2023-02-22T13:21:04.116Z,13.13
2023-02-22T13:23:49.946Z,12.75
2023-02-22T13:26:16.962Z,13.00
2023-02-22T13:28:45.487Z,13.57
2023-02-22T13:31:37.656Z,13.07
2023-02-22T13:34:05.698Z,13.05
2023-02-22T13:36:37.761Z,13.05
2023-02-22T13:39:10.924Z,12.95
2023-02-22T13:41:37.949Z,12.48
2023-02-22T13:44:10.777Z,13.25
2023-02-22T13:46:37.861Z,12.65
2023-02-22T13:49:28.186Z,12.27
2023-02-22T13:51:56.673Z,12.25
2023-02-22T13:54:46.138Z,13.55
2023-02-22T13:57:22.082Z,12.70
2023-02-22T13:59:49.159Z,12.85
2023-02-22T14:02:54.665Z,13.82
2023-02-22T14:05:42.990Z,13.93
2023-02-22T14:08:19.411Z,14.25
2023-02-22T14:10:49.958Z,13.75
2023-02-22T14:13:17.808Z,14.48
2023-02-22T14:16:00.452Z,13.50
2023-02-22T14:18:27.973Z,14.45
2023-02-22T14:21:14.240Z,14.65
2023-02-22T14:23:44.997Z,14.50
2023-02-22T14:26:18.471Z,15.07
2023-02-22T14:28:54.800Z,14.55
2023-02-22T14:31:35.374Z,13.98
2023-02-22T14:34:07.746Z,14.43
2023-02-22T14:36:34.735Z,14.13
2023-02-22T14:39:16.389Z,15.32
2023-02-22T14:41:45.247Z,14.35
2023-02-22T14:44:13.584Z,14.00
2023-02-22T14:46:41.555Z,13.93
2023-02-22T14:49:10.045Z,14.05
2023-02-22T14:51:43.437Z,13.55
2023-02-22T14:54:13.204Z,13.85
2023-02-22T14:56:44.014Z,14.77
2023-02-22T14:59:16.185Z,15.05
2023-02-22T15:01:58.458Z,15.40
2023-02-22T15:04:33.046Z,15.07
2023-02-22T15:07:00.843Z,15.13
2023-02-22T15:09:30.606Z,15.27
2023-02-22T15:12:05.263Z,15.25
2023-02-22T15:14:37.371Z,16.25
2023-02-22T15:17:06.739Z,14.90
2023-02-22T15:19:34.581Z,16.75
2023-02-22T15:22:01.900Z,15.32
2023-02-22T15:24:29.604Z,16.65
2023-02-22T15:27:02.215Z,15.85
2023-02-22T15:29:35.829Z,16.33
2023-02-22T15:32:03.002Z,15.48
2023-02-22T15:34:33.151Z,16.83
2023-02-22T15:37:19.558Z,15.45
2023-02-22T15:39:46.570Z,16.15
2023-02-22T15:42:20.743Z,17.38
2023-02-22T15:44:48.282Z,17.33
2023-02-22T15:47:25.351Z,17.90
2023-02-22T15:50:31.012Z,18.20
2023-02-22T15:52:58.177Z,16.70
2023-02-22T15:55:29.443Z,17.65
2023-02-22T15:57:57.808Z,16.92
2023-02-22T16:00:25.888Z,18.80
2023-02-22T16:02:52.950Z,18.92
2023-02-22T16:05:20.095Z,18.63
2023-02-22T16:07:50.489Z,18.33
2023-02-22T16:10:28.215Z,17.73
2023-02-22T16:13:11.148Z,18.73
2023-02-22T16:15:41.322Z,19.15
2023-02-22T16:18:47.104Z,19.33
2023-02-22T16:21:15.255Z,18.83
2023-02-22T16:23:51.012Z,19.10
2023-02-22T16:26:25.378Z,18.77
2023-02-22T16:28:53.893Z,18.98
2023-02-22T16:31:22.258Z,19.15
2023-02-22T16:33:51.096Z,18.98
2023-02-22T16:36:19.385Z,19.83
2023-02-22T16:38:48.311Z,18.83
2023-02-22T16:41:25.118Z,18.33
2023-02-22T16:43:52.251Z,17.92
2023-02-22T16:46:20.008Z,18.40
2023-02-22T16:48:47.368Z,17.83
2023-02-22T16:51:18.580Z,17.95
2023-02-22T16:53:45.634Z,17.42
2023-02-22T16:56:12.942Z,17.55
2023-02-22T16:58:40.099Z,18.65
2023-02-22T17:01:07.179Z,19.15
2023-02-22T17:03:34.258Z,19.17
2023-02-22T17:06:01.330Z,19.08
2023-02-22T17:08:28.334Z,19.98
2023-02-22T17:10:56.657Z,20.05
2023-02-22T17:13:26.977Z,20.35
2023-02-22T17:15:54.874Z,21.52
2023-02-22T17:18:22.497Z,20.58
2023-02-22T17:20:52.416Z,22.50
2023-02-22T17:23:19.628Z,21.67
2023-02-22T17:25:49.437Z,22.27
2023-02-22T17:28:16.819Z,21.08
2023-02-22T17:30:48.888Z,22.73
2023-02-22T17:33:16.943Z,21.05
2023-02-22T17:35:44.436Z,22.92
2023-02-22T17:38:11.485Z,23.35
2023-02-22T17:40:38.899Z,23.48
2023-02-22T17:43:08.598Z,22.00
2023-02-22T17:45:37.932Z,23.07
2023-02-22T17:48:05.436Z,23.17
2023-02-22T17:50:32.515Z,23.80
2023-02-22T17:53:03.183Z,24.70
2023-02-22T17:55:30.350Z,23.58
2023-02-22T17:57:58.275Z,25.15
2023-02-22T18:00:32.890Z,25.25
2023-02-22T18:03:10.244Z,25.60
2023-02-22T18:05:46.183Z,37.50
2023-02-22T18:08:13.479Z,27.75
2023-02-22T18:10:42.221Z,26.00
2023-02-22T18:13:09.766Z,26.10
2023-02-22T18:15:36.879Z,25.58
2023-02-22T18:18:05.175Z,25.27
2023-02-22T18:20:38.049Z,29.83
2023-02-22T18:23:07.459Z,27.35
2023-02-22T18:25:37.972Z,25.20
2023-02-22T18:30:33.698Z,24.13
2023-02-22T18:33:00.717Z,24.35
2023-02-22T18:35:28.032Z,24.23
2023-02-22T18:37:55.061Z,25.80
2023-02-22T18:40:23.753Z,25.30
2023-02-22T18:42:50.726Z,25.40
2023-02-22T18:45:18.033Z,25.60
2023-02-22T18:47:45.517Z,25.98
2023-02-22T18:50:12.933Z,26.40
2023-02-22T18:52:46.083Z,25.45
2023-02-22T18:55:13.977Z,26.70
2023-02-22T18:57:41.233Z,27.25
2023-02-22T19:00:09.223Z,27.30
2023-02-22T19:02:36.258Z,26.23
2023-02-22T19:05:03.827Z,24.00
2023-02-22T19:07:32.700Z,25.27
2023-02-22T19:10:00.536Z,24.65
2023-02-22T19:12:27.558Z,25.90
2023-02-22T19:14:54.718Z,25.58
2023-02-22T19:17:21.820Z,25.35
2023-02-22T19:19:49.052Z,26.83
2023-02-22T19:22:16.157Z,27.48
2023-02-22T19:24:43.572Z,27.00
2023-02-22T19:27:10.924Z,25.13
2023-02-22T19:29:38.929Z,23.25
2023-02-22T19:32:09.556Z,24.33
2023-02-22T19:34:37.053Z,26.25
2023-02-22T19:37:05.045Z,34.70
2023-02-22T19:39:32.754Z,35.08
2023-02-22T19:42:00.351Z,37.78
2023-02-22T19:44:27.668Z,27.75
2023-02-22T19:46:57.547Z,27.42
2023-02-22T19:51:52.833Z,25.35
2023-02-22T19:54:21.440Z,24.70
2023-02-22T19:56:51.074Z,25.30
2023-02-22T19:59:22.598Z,25.20
2023-02-22T20:01:49.860Z,25.50
2023-02-22T20:04:18.317Z,28.95
2023-02-22T20:06:45.903Z,26.23
2023-02-22T20:09:13.454Z,25.52
2023-02-22T20:11:40.502Z,28.13
2023-02-22T20:14:07.619Z,26.55
2023-02-22T20:16:35.248Z,27.23
2023-02-22T20:19:02.370Z,26.42
2023-02-22T20:21:33.004Z,27.45
2023-02-22T20:24:00.541Z,26.70
2023-02-22T20:26:28.848Z,26.50
2023-02-22T20:28:56.324Z,26.83
2023-02-22T20:31:23.416Z,26.05
2023-02-22T20:33:53.348Z,27.15
2023-02-22T20:36:23.626Z,27.02
2023-02-22T20:38:57.660Z,25.95
2023-02-22T20:41:28.601Z,25.90
2023-02-22T20:43:56.196Z,27.42
2023-02-22T20:46:23.691Z,26.70
2023-02-22T20:48:54.221Z,27.65
2023-02-22T20:53:48.851Z,33.05
2023-02-22T20:56:16.500Z,28.00
2023-02-22T20:58:43.780Z,28.83
2023-02-22T21:01:14.160Z,31.25
2023-02-22T21:03:44.623Z,33.55
2023-02-22T21:08:45.388Z,28.52
2023-02-22T21:11:15.957Z,29.98
2023-02-22T21:13:43.104Z,30.73
2023-02-22T21:16:10.598Z,27.85
2023-02-22T21:18:37.737Z,26.85
2023-02-22T21:21:10.226Z,29.90
2023-02-22T21:23:37.749Z,28.67
2023-02-22T21:26:05.066Z,27.52
2023-02-22T21:28:50.590Z,27.98
2023-02-22T21:31:19.193Z,27.20
2023-02-22T21:33:46.649Z,27.88
2023-02-22T21:36:13.835Z,26.05
2023-02-22T21:38:41.415Z,28.08
2023-02-22T21:41:10.775Z,23.38
2023-02-22T21:43:37.908Z,26.02
2023-02-22T21:46:05.464Z,25.60
2023-02-22T21:48:32.548Z,24.38
2023-02-22T21:51:01.100Z,27.63
2023-02-22T21:53:28.895Z,26.00
2023-02-22T21:55:56.102Z,30.85
2023-02-22T21:58:23.159Z,34.53
2023-02-22T22:00:50.189Z,35.22
2023-02-22T22:03:20.313Z,36.10
2023-02-22T22:05:48.217Z,35.67
2023-02-22T22:08:21.788Z,34.28
2023-02-22T22:10:55.444Z,34.60
2023-02-22T22:13:23.057Z,36.83
2023-02-22T22:15:50.470Z,54.00
2023-02-22T22:18:17.737Z,34.42
2023-02-22T22:20:44.989Z,32.83
2023-02-22T22:23:15.426Z,26.77
2023-02-22T22:25:43.606Z,28.52
2023-02-22T22:28:11.298Z,28.80
2023-02-22T22:30:38.511Z,28.95
2023-02-22T22:33:05.864Z,27.30
2023-02-22T22:35:33.524Z,27.23
2023-02-22T22:38:01.149Z,28.02
2023-02-22T22:40:28.517Z,25.60
2023-02-22T22:42:55.663Z,26.35
2023-02-22T22:45:22.799Z,27.00
2023-02-22T22:47:49.910Z,26.38
2023-02-22T22:50:26.186Z,28.98
2023-02-22T22:52:55.631Z,29.30
2023-02-22T22:55:24.253Z,27.92
2023-02-22T22:57:54.149Z,27.25
2023-02-22T23:00:36.993Z,26.20
2023-02-22T23:03:05.594Z,26.67
2023-02-22T23:05:36.966Z,25.70
2023-02-22T23:08:04.893Z,26.35
2023-02-22T23:10:32.940Z,24.35
2023-02-22T23:12:59.965Z,23.25
2023-02-22T23:15:27.113Z,23.45
2023-02-22T23:17:56.243Z,21.30
2023-02-22T23:20:26.245Z,19.85
2023-02-22T23:22:53.968Z,18.70
2023-02-22T23:25:21.389Z,19.73
2023-02-22T23:27:49.094Z,19.00
2023-02-22T23:30:18.591Z,19.98
2023-02-22T23:32:49.500Z,20.30
2023-02-22T23:35:16.611Z,20.52
2023-02-22T23:37:46.180Z,16.67
2023-02-22T23:40:16.985Z,16.63
2023-02-22T23:42:50.144Z,17.52
2023-02-22T23:45:22.579Z,16.80
2023-02-22T23:48:01.571Z,16.50
2023-02-22T23:50:29.118Z,18.15
2023-02-22T23:53:00.021Z,18.02
2023-02-22T23:55:27.656Z,24.60
2023-02-22T23:58:01.294Z,24.75
